Time;durP1;ratioP1;P1;durP2;ratioP2;P2;SDS_P1;SDS_P2;PMS_P1;PMS_P2;Temp;Humidity;BMP_temperature;BMP_pressure;BME280_temperature;BME280_humidity;BME280_pressure;Samples;Min_cycle;Max_cycle;Signal;HPM_P1;HPM_P2
2022/02/09 00:00:04;;;;;;;;;;;7.10;99.90;;;;;;5022257;28;19928;-89
2022/02/09 00:03:05;;;;;;;;;;;7.10;99.90;;;;;;5019412;28;19906;-90
2022/02/09 00:05:30;;;;;;;;;;;7.10;99.90;;;;;;5021141;28;19913;-90
2022/02/09 00:10:21;;;;;;;;;;;7.10;99.90;;;;;;5023086;28;19969;-91
2022/02/09 00:13:06;;;;;;;;;;;7.10;99.90;;;;;;5021622;28;19916;-89
2022/02/09 00:18:11;;;;;;;;;;;7.00;99.90;;;;;;5021578;28;19906;-90
2022/02/09 00:34:10;;;;;;;;;;;7.00;99.90;;;;;;5019730;28;19917;-95
2022/02/09 00:37:06;;;;;;;;;;;7.00;99.90;;;;;;5022975;28;19955;-93
2022/02/09 00:39:40;;;;;;;;;;;7.00;99.90;;;;;;5019319;28;19906;-96
2022/02/09 00:45:18;;;;;;;;;;;6.90;99.90;;;;;;5023409;28;19913;-90
2022/02/09 01:39:12;;;;;;;;;;;6.20;99.90;;;;;;5021905;28;19944;-94
2022/02/09 01:55:32;;;;;;;;;;;5.90;99.90;;;;;;5019231;28;20208;-93
2022/02/09 01:57:58;;;;;;;;;;;5.90;99.90;;;;;;5005754;28;20209;-89
2022/02/09 02:00:23;;;;;;;;;;;5.90;99.90;;;;;;5021734;28;19906;-95
2022/02/09 02:02:49;;;;;;;;;;;5.90;99.90;;;;;;5021367;28;19905;-91
2022/02/09 02:05:15;;;;;;;;;;;5.90;99.90;;;;;;5014749;28;19994;-90
2022/02/09 02:07:53;;;;;;;;;;;5.80;99.90;;;;;;5009017;28;19906;-95
2022/02/09 02:10:34;;;;;;;;;;;5.90;99.90;;;;;;5017083;28;19929;-91
2022/02/09 02:18:20;;;;;;;;;;;5.70;99.90;;;;;;5020511;28;19947;-90
2022/02/09 02:28:43;;;;;;;;;;;5.70;99.90;;;;;;5021489;28;20186;-96
2022/02/09 02:36:56;;;;;;;;;;;5.70;99.90;;;;;;5023422;28;19909;-90
2022/02/09 02:39:45;;;;;;;;;;;5.60;99.90;;;;;;5025420;28;20209;-91
2022/02/09 03:12:35;;;;;;;;;;;5.50;99.90;;;;;;5025269;28;19905;-90
2022/02/09 03:17:39;;;;;;;;;;;5.50;99.90;;;;;;5018954;28;19913;-89
2022/02/09 03:20:19;;;;;;;;;;;5.50;99.90;;;;;;5010555;28;19918;-90
2022/02/09 03:23:01;;;;;;;;;;;5.50;99.90;;;;;;5021199;28;19932;-90
2022/02/09 03:26:08;;;;;;;;;;;5.50;99.90;;;;;;5005455;28;19992;-90
2022/02/09 03:57:45;;;;;;;;;;;5.20;99.90;;;;;;5030231;28;19912;-90
2022/02/09 04:00:15;;;;;;;;;;;5.20;99.90;;;;;;5008633;28;20008;-89
2022/02/09 04:02:45;;;;;;;;;;;5.20;99.90;;;;;;5020652;28;19906;-91
2022/02/09 04:05:11;;;;;;;;;;;5.20;99.90;;;;;;5025248;28;19960;-90
2022/02/09 04:07:36;;;;;;;;;;;5.20;99.90;;;;;;5026999;28;19905;-89
2022/02/09 04:10:07;;;;;;;;;;;5.20;99.90;;;;;;5027778;28;20095;-90
2022/02/09 04:15:20;;;;;;;;;;;5.10;99.90;;;;;;5027364;28;20198;-90
2022/02/09 04:18:10;;;;;;;;;;;5.10;99.90;;;;;;5027105;28;20790;-90
2022/02/09 04:37:05;;;;;;;;;;;4.90;99.90;;;;;;5021076;28;20009;-90
2022/02/09 04:39:47;;;;;;;;;;;4.90;99.90;;;;;;5022036;28;19933;-91
2022/02/09 04:55:44;;;;;;;;;;;4.80;99.90;;;;;;5021576;28;19911;-89
2022/02/09 05:00:57;;;;;;;;;;;4.90;99.90;;;;;;5019841;28;19965;-91
2022/02/09 05:03:44;;;;;;;;;;;4.90;99.90;;;;;;5004912;28;19922;-95
2022/02/09 05:28:03;;;;;;;;;;;5.30;99.90;;;;;;5023284;28;19912;-90
2022/02/09 05:30:28;;;;;;;;;;;5.40;99.90;;;;;;5006302;28;19906;-90
2022/02/09 05:32:54;;;;;;;;;;;5.40;99.90;;;;;;5006158;28;20132;-90
2022/02/09 05:35:21;;;;;;;;;;;5.40;99.90;;;;;;5023821;28;19952;-89
2022/02/09 05:37:50;;;;;;;;;;;5.40;99.90;;;;;;5015252;28;19912;-89
2022/02/09 05:40:16;;;;;;;;;;;5.50;99.90;;;;;;5023035;28;19933;-89
2022/02/09 05:42:42;;;;;;;;;;;5.50;99.90;;;;;;5022582;28;19921;-90
2022/02/09 05:45:10;;;;;;;;;;;5.60;99.90;;;;;;5019219;28;19906;-94
2022/02/09 05:57:51;;;;;;;;;;;5.80;99.90;;;;;;5014969;28;20232;-91
2022/02/09 06:00:17;;;;;;;;;;;5.80;99.90;;;;;;5014298;28;19905;-90
2022/02/09 06:02:46;;;;;;;;;;;5.80;99.90;;;;;;5004599;28;19920;-94
2022/02/09 06:05:13;;;;;;;;;;;5.80;99.90;;;;;;5004886;28;19911;-91
2022/02/09 06:07:39;;;;;;;;;;;5.70;99.90;;;;;;5022616;28;19906;-95
2022/02/09 06:10:12;;;;;;;;;;;5.70;99.90;;;;;;5021537;28;19910;-92
2022/02/09 06:12:47;;;;;;;;;;;5.70;99.90;;;;;;5019656;28;20113;-95
2022/02/09 06:15:45;;;;;;;;;;;5.70;99.90;;;;;;5026309;28;19948;-89
2022/02/09 06:20:48;;;;;;;;;;;5.60;99.90;;;;;;5019695;28;20384;-92
2022/02/09 06:23:14;;;;;;;;;;;5.70;99.90;;;;;;5023491;28;19940;-91
2022/02/09 06:25:42;;;;;;;;;;;5.70;99.90;;;;;;5014349;28;19947;-93
2022/02/09 06:28:08;;;;;;;;;;;5.70;99.90;;;;;;5028510;28;20193;-92
2022/02/09 06:30:37;;;;;;;;;;;5.70;99.90;;;;;;5026219;28;19976;-92
2022/02/09 06:33:03;;;;;;;;;;;5.70;99.90;;;;;;5007847;28;19917;-92
2022/02/09 06:35:29;;;;;;;;;;;5.70;99.90;;;;;;5009643;28;19980;-92
2022/02/09 06:37:59;;;;;;;;;;;5.80;99.90;;;;;;5017052;28;19932;-95
2022/02/09 06:40:29;;;;;;;;;;;5.80;99.90;;;;;;5025963;28;19916;-93
2022/02/09 06:42:57;;;;;;;;;;;5.70;99.90;;;;;;5015061;28;19932;-93
2022/02/09 06:45:27;;;;;;;;;;;5.60;99.90;;;;;;5015492;28;19910;-92
2022/02/09 06:47:53;;;;;;;;;;;5.70;99.90;;;;;;5010449;28;19920;-92
2022/02/09 06:50:30;;;;;;;;;;;5.60;99.90;;;;;;5028511;28;20320;-93
2022/02/09 06:53:10;;;;;;;;;;;5.60;99.90;;;;;;5022067;28;19972;-93
2022/02/09 06:55:44;;;;;;;;;;;5.60;99.90;;;;;;5023642;28;19913;-93
2022/02/09 06:58:21;;;;;;;;;;;5.60;99.90;;;;;;5026004;28;19920;-93
2022/02/09 07:00:47;;;;;;;;;;;5.60;99.90;;;;;;5010155;28;19898;-91
2022/02/09 07:03:15;;;;;;;;;;;5.60;99.90;;;;;;5011046;28;19915;-94
2022/02/09 07:05:43;;;;;;;;;;;5.70;99.90;;;;;;5007566;28;19910;-93
2022/02/09 07:08:11;;;;;;;;;;;5.70;99.90;;;;;;5010650;28;19913;-91
2022/02/09 07:10:37;;;;;;;;;;;5.70;99.90;;;;;;5011055;28;20363;-95
2022/02/09 07:13:03;;;;;;;;;;;5.60;99.90;;;;;;5018950;28;19913;-93
2022/02/09 07:15:33;;;;;;;;;;;5.60;99.90;;;;;;5008256;28;19910;-92
2022/02/09 07:18:05;;;;;;;;;;;5.50;99.90;;;;;;4987968;28;19914;-93
2022/02/09 07:20:40;;;;;;;;;;;5.50;99.90;;;;;;5009104;28;19928;-95
2022/02/09 07:23:06;;;;;;;;;;;5.50;99.90;;;;;;5004781;28;19964;-96
2022/02/09 07:25:33;;;;;;;;;;;5.50;99.90;;;;;;5000400;28;19913;-92
2022/02/09 07:28:02;;;;;;;;;;;5.50;99.90;;;;;;5010635;28;20182;-93
2022/02/09 07:30:28;;;;;;;;;;;5.50;99.90;;;;;;5001807;28;19909;-93
2022/02/09 07:32:59;;;;;;;;;;;5.70;99.90;;;;;;5002435;28;19920;-94
2022/02/09 07:35:25;;;;;;;;;;;5.70;99.90;;;;;;5009580;28;19917;-94
2022/02/09 07:37:50;;;;;;;;;;;5.70;99.90;;;;;;5003863;28;19914;-93
2022/02/09 07:40:18;;;;;;;;;;;5.70;99.90;;;;;;5005579;28;19910;-92
2022/02/09 07:42:49;;;;;;;;;;;5.70;99.90;;;;;;4998527;28;19929;-93
2022/02/09 07:47:48;;;;;;;;;;;5.80;99.90;;;;;;5014117;28;19909;-92
2022/02/09 07:50:36;;;;;;;;;;;5.80;99.90;;;;;;4996862;28;19917;-93
2022/02/09 07:53:24;;;;;;;;;;;5.80;99.90;;;;;;5002348;28;19983;-94
2022/02/09 07:55:50;;;;;;;;;;;5.80;99.90;;;;;;5003862;28;19964;-94
2022/02/09 07:58:16;;;;;;;;;;;5.90;99.90;;;;;;5004152;28;19944;-94
2022/02/09 08:00:44;;;;;;;;;;;5.90;99.90;;;;;;5005834;28;19910;-92
2022/02/09 08:03:10;;;;;;;;;;;6.00;99.90;;;;;;5012323;28;19913;-94
2022/02/09 08:05:36;;;;;;;;;;;6.00;99.90;;;;;;4997668;28;20392;-93
2022/02/09 08:08:02;;;;;;;;;;;6.00;99.90;;;;;;4998862;28;19909;-93
2022/02/09 08:10:38;;;;;;;;;;;6.00;99.90;;;;;;4996411;28;19917;-93
2022/02/09 08:24:09;;;;;;;;;;;6.30;99.90;;;;;;5014716;28;19929;-93
2022/02/09 08:29:25;;;;;;;;;;;6.50;99.90;;;;;;5014076;28;20452;-94
2022/02/09 08:34:26;;;;;;;;;;;6.70;99.90;;;;;;5032853;28;20015;-92
2022/02/09 08:36:53;;;;;;;;;;;6.60;99.90;;;;;;5010325;28;19948;-93
2022/02/09 08:39:19;;;;;;;;;;;6.80;99.90;;;;;;5010917;28;19920;-93
2022/02/09 08:41:45;;;;;;;;;;;6.80;99.90;;;;;;5012449;28;19910;-94
2022/02/09 08:44:10;;;;;;;;;;;7.00;99.90;;;;;;5011360;28;19916;-92
2022/02/09 08:46:37;;;;;;;;;;;7.20;99.90;;;;;;5002100;28;19920;-91
2022/02/09 08:49:02;;;;;;;;;;;7.30;99.90;;;;;;5011315;28;19909;-93
2022/02/09 08:51:28;;;;;;;;;;;7.50;99.90;;;;;;4999097;28;19986;-94
2022/02/09 08:53:54;;;;;;;;;;;7.60;99.90;;;;;;5008385;28;20165;-93
2022/02/09 08:56:20;;;;;;;;;;;7.70;99.90;;;;;;4998367;28;20374;-93
2022/02/09 08:58:46;;;;;;;;;;;7.70;99.90;;;;;;4995426;28;19921;-94
2022/02/09 09:01:23;;;;;;;;;;;7.70;99.90;;;;;;5011295;28;19909;-93
2022/02/09 09:03:52;;;;;;;;;;;7.90;99.90;;;;;;4995298;28;19909;-93
2022/02/09 09:06:22;;;;;;;;;;;7.90;99.90;;;;;;4994967;28;19948;-93
2022/02/09 10:33:57;;;;;;;;;;;9.30;99.90;;;;;;5015316;28;20016;-94
2022/02/09 10:36:23;;;;;;;;;;;9.30;99.90;;;;;;5010835;28;19916;-93
2022/02/09 10:38:56;;;;;;;;;;;9.40;99.90;;;;;;5002999;28;19909;-94
2022/02/09 10:41:26;;;;;;;;;;;9.50;99.90;;;;;;5016381;28;19977;-94
2022/02/09 10:44:25;;;;;;;;;;;9.50;99.90;;;;;;5014770;28;19910;-94
2022/02/09 10:46:56;;;;;;;;;;;9.70;99.90;;;;;;4994325;28;19920;-94
2022/02/09 10:49:25;;;;;;;;;;;9.80;99.90;;;;;;5007682;28;20370;-94
2022/02/09 10:52:04;;;;;;;;;;;9.80;99.90;;;;;;5007111;28;19917;-94
2022/02/09 10:54:31;;;;;;;;;;;9.80;99.90;;;;;;5007345;28;19953;-94
2022/02/09 10:56:58;;;;;;;;;;;9.80;99.90;;;;;;5012364;28;20325;-94
2022/02/09 10:59:25;;;;;;;;;;;9.90;99.90;;;;;;5001491;28;19949;-94
2022/02/09 11:01:51;;;;;;;;;;;10.00;99.90;;;;;;5012362;28;19953;-94
2022/02/09 11:04:16;;;;;;;;;;;10.10;99.90;;;;;;5012571;28;19909;-95
2022/02/09 11:06:43;;;;;;;;;;;10.10;99.90;;;;;;5014613;28;20376;-93
2022/02/09 11:09:10;;;;;;;;;;;10.20;99.90;;;;;;4996819;28;19910;-94
2022/02/09 11:11:38;;;;;;;;;;;10.30;99.90;;;;;;5007398;28;19914;-94
2022/02/09 11:14:05;;;;;;;;;;;10.30;99.90;;;;;;5016388;28;19918;-96
2022/02/09 11:16:31;;;;;;;;;;;10.40;99.90;;;;;;4997863;28;19909;-95
2022/02/09 11:18:57;;;;;;;;;;;10.40;99.90;;;;;;4997595;28;19920;-92
2022/02/09 11:21:28;;;;;;;;;;;10.30;99.90;;;;;;4997283;28;19909;-91
2022/02/09 11:23:56;;;;;;;;;;;10.40;99.90;;;;;;5007988;28;20064;-95
2022/02/09 11:29:36;;;;;;;;;;;10.40;99.90;;;;;;5015414;28;19921;-94
2022/02/09 11:37:51;;;;;;;;;;;10.50;99.90;;;;;;5013375;28;19910;-96
2022/02/09 11:40:34;;;;;;;;;;;10.70;99.90;;;;;;5002481;28;19909;-95
2022/02/09 11:43:18;;;;;;;;;;;10.70;99.90;;;;;;5013826;28;19932;-95
2022/02/09 11:46:05;;;;;;;;;;;10.60;99.90;;;;;;4995296;28;19949;-95
2022/02/09 11:49:10;;;;;;;;;;;10.50;99.90;;;;;;5013002;28;19910;-96
2022/02/09 12:08:48;;;;;;;;;;;10.50;99.90;;;;;;5008696;28;19913;-93
2022/02/09 12:10:12;;;;;;;;;;;10.50;99.90;;;;;;5014462;28;19917;-93
2022/02/09 12:12:42;;;;;;;;;;;10.50;99.90;;;;;;5002194;28;19988;-93
2022/02/09 12:20:48;;;;;;;;;;;10.50;99.90;;;;;;5012963;28;20199;-94
2022/02/09 12:25:38;;;;;;;;;;;10.60;99.90;;;;;;5013083;28;20298;-94
2022/02/09 12:28:04;;;;;;;;;;;10.60;99.90;;;;;;5010773;28;20401;-96
2022/02/09 12:30:30;;;;;;;;;;;10.70;99.90;;;;;;5011634;28;19916;-94
2022/02/09 12:32:55;;;;;;;;;;;10.70;99.90;;;;;;5002688;28;20366;-94
2022/02/09 12:35:21;;;;;;;;;;;10.60;99.90;;;;;;4996351;28;19930;-94
2022/02/09 12:37:47;;;;;;;;;;;10.60;99.90;;;;;;4995397;28;19910;-92
2022/02/09 12:40:15;;;;;;;;;;;10.70;99.90;;;;;;4997855;28;19909;-94
2022/02/09 12:42:46;;;;;;;;;;;10.80;99.90;;;;;;4996866;28;19909;-94
2022/02/09 12:45:19;;;;;;;;;;;10.80;99.90;;;;;;4998531;28;20321;-93
2022/02/09 12:47:57;;;;;;;;;;;10.90;99.90;;;;;;5008513;28;19909;-92
2022/02/09 12:50:30;;;;;;;;;;;11.00;99.90;;;;;;4995483;28;19936;-94
2022/02/09 12:52:56;;;;;;;;;;;11.10;99.90;;;;;;4994809;28;19910;-93
2022/02/09 12:55:26;;;;;;;;;;;11.10;99.90;;;;;;4994515;28;19913;-92
2022/02/09 12:58:01;;;;;;;;;;;11.20;99.90;;;;;;5013523;28;21634;-94
2022/02/09 13:00:26;;;;;;;;;;;11.40;99.90;;;;;;5014499;28;20035;-93
2022/02/09 13:02:53;;;;;;;;;;;11.50;99.90;;;;;;5013505;28;20042;-92
2022/02/09 13:05:18;;;;;;;;;;;11.60;99.90;;;;;;5014587;28;19920;-92
2022/02/09 13:07:51;;;;;;;;;;;11.70;99.90;;;;;;5006262;28;19909;-92
2022/02/09 13:10:21;;;;;;;;;;;11.80;99.90;;;;;;5008230;28;19960;-93
2022/02/09 13:12:46;;;;;;;;;;;11.80;99.90;;;;;;5010515;28;20285;-93
2022/02/09 13:15:19;;;;;;;;;;;11.90;99.90;;;;;;5010605;28;19918;-94
2022/02/09 13:26:18;;;;;;;;;;;12.40;99.90;;;;;;5012411;28;19909;-93
2022/02/09 13:52:52;;;;;;;;;;;12.70;99.90;;;;;;5011729;28;19921;-92
2022/02/09 14:19:14;;;;;;;;;;;12.50;99.90;;;;;;5005842;28;20038;-92
2022/02/09 14:53:33;;;;;;;;;;;11.60;99.90;;;;;;5014667;28;19952;-92
2022/02/09 14:58:30;;;;;;;;;;;11.70;99.90;;;;;;5014463;28;19933;-92
2022/02/09 15:01:11;;;;;;;;;;;11.80;99.90;;;;;;4997070;28;19916;-93
2022/02/09 15:14:21;;;;;;;;;;;11.60;99.90;;;;;;5021718;28;19982;-92
2022/02/09 15:16:57;;;;;;;;;;;11.70;99.90;;;;;;5028672;28;19935;-92
2022/02/09 15:19:37;;;;;;;;;;;11.80;99.90;;;;;;5015028;28;19921;-93
2022/02/09 15:22:07;;;;;;;;;;;11.70;99.90;;;;;;5028395;28;19909;-92
2022/02/09 15:24:43;;;;;;;;;;;11.80;99.90;;;;;;5030855;28;19909;-92
2022/02/09 15:27:15;;;;;;;;;;;11.70;99.90;;;;;;5024143;28;20362;-93
2022/02/09 15:29:41;;;;;;;;;;;11.60;99.90;;;;;;5027375;28;19910;-92
2022/02/09 15:32:16;;;;;;;;;;;11.60;99.90;;;;;;5031453;28;19989;-91
2022/02/09 15:34:49;;;;;;;;;;;11.70;99.90;;;;;;5028010;28;19917;-92
2022/02/09 15:37:34;;;;;;;;;;;11.80;99.90;;;;;;5025392;28;19909;-92
2022/02/09 15:40:08;;;;;;;;;;;11.80;99.90;;;;;;5023627;28;19913;-92
2022/02/09 16:33:10;;;;;;;;;;;11.10;99.90;;;;;;5013108;28;19909;-93
2022/02/09 16:45:02;;;;;;;;;;;10.90;99.90;;;;;;5011570;28;19917;-93
2022/02/09 16:47:49;;;;;;;;;;;10.70;99.90;;;;;;4996818;28;20314;-92
2022/02/09 16:50:17;;;;;;;;;;;10.40;99.90;;;;;;4994652;28;19909;-93
2022/02/09 16:52:54;;;;;;;;;;;10.20;99.90;;;;;;4994827;28;19917;-93
2022/02/09 17:19:28;;;;;;;;;;;9.40;99.90;;;;;;4976928;28;19988;-92
2022/02/09 17:21:54;;;;;;;;;;;9.40;99.90;;;;;;5004133;28;19945;-91
2022/02/09 17:24:19;;;;;;;;;;;9.30;99.90;;;;;;5010659;28;19909;-92
2022/02/09 17:26:45;;;;;;;;;;;9.30;99.90;;;;;;5015625;28;20154;-91
2022/02/09 17:29:17;;;;;;;;;;;9.20;99.90;;;;;;5008682;28;19976;-92
2022/02/09 17:31:55;;;;;;;;;;;9.10;99.90;;;;;;5011641;28;20011;-92
2022/02/09 17:58:19;;;;;;;;;;;8.70;99.90;;;;;;5016205;28;19916;-91
2022/02/09 18:00:47;;;;;;;;;;;8.80;99.90;;;;;;5000945;28;19975;-92
2022/02/09 18:03:12;;;;;;;;;;;8.70;99.90;;;;;;5009749;28;19909;-92
2022/02/09 18:05:47;;;;;;;;;;;8.70;99.90;;;;;;5013138;28;20285;-92
2022/02/09 18:08:35;;;;;;;;;;;8.60;99.90;;;;;;5002146;28;19917;-93
2022/02/09 18:29:29;;;;;;;;;;;8.50;99.90;;;;;;5016874;28;20433;-86
2022/02/09 18:40:48;;;;;;;;;;;8.40;99.90;;;;;;5020884;28;19912;-92
2022/02/09 19:04:00;;;;;;;;;;;8.20;99.90;;;;;;5025273;28;19905;-92
2022/02/09 19:06:55;;;;;;;;;;;8.20;99.90;;;;;;5009140;28;19940;-93
2022/02/09 19:14:44;;;;;;;;;;;8.00;99.90;;;;;;5023959;28;19921;-93
2022/02/09 19:17:25;;;;;;;;;;;7.90;99.90;;;;;;5012639;28;20278;-92
2022/02/09 19:19:58;;;;;;;;;;;7.80;99.90;;;;;;5007969;28;19921;-92
2022/02/09 19:49:10;;;;;;;;;;;7.50;99.90;;;;;;5024829;28;19944;-93
2022/02/09 19:54:13;;;;;;;;;;;7.40;99.90;;;;;;5021163;28;19913;-93
2022/02/09 19:56:49;;;;;;;;;;;7.30;99.90;;;;;;5008064;28;20208;-93
2022/02/09 19:59:17;;;;;;;;;;;7.30;99.90;;;;;;5018073;28;19906;-92
2022/02/09 20:01:44;;;;;;;;;;;7.20;99.90;;;;;;5012088;28;19906;-93
2022/02/09 20:04:10;;;;;;;;;;;7.20;99.90;;;;;;5018352;28;19906;-93
2022/02/09 20:06:36;;;;;;;;;;;7.20;99.90;;;;;;5016633;28;19912;-93
2022/02/09 20:09:02;;;;;;;;;;;7.20;99.90;;;;;;5007194;28;19914;-92
2022/02/09 20:11:28;;;;;;;;;;;7.10;99.90;;;;;;5008134;28;20202;-92
2022/02/09 20:13:53;;;;;;;;;;;7.10;99.90;;;;;;5005730;28;19918;-94
2022/02/09 20:16:20;;;;;;;;;;;7.10;99.90;;;;;;4980909;28;19917;-91
2022/02/09 20:18:49;;;;;;;;;;;7.00;99.90;;;;;;4981601;28;20306;-92
2022/02/09 20:21:16;;;;;;;;;;;7.00;99.90;;;;;;5011646;28;20436;-93
2022/02/09 20:23:42;;;;;;;;;;;7.00;99.90;;;;;;5004311;28;19915;-91
2022/02/09 20:26:10;;;;;;;;;;;6.90;99.90;;;;;;5015464;28;20004;-94
2022/02/09 20:28:39;;;;;;;;;;;6.90;99.90;;;;;;4997304;28;20466;-91
2022/02/09 20:31:09;;;;;;;;;;;6.90;99.90;;;;;;5003921;28;19910;-93
2022/02/09 20:33:41;;;;;;;;;;;6.90;99.90;;;;;;4996232;28;19913;-93
2022/02/09 20:36:11;;;;;;;;;;;6.80;99.90;;;;;;5002820;28;19909;-95
2022/02/09 20:38:38;;;;;;;;;;;6.80;99.90;;;;;;5007153;28;19909;-93
2022/02/09 20:41:07;;;;;;;;;;;6.80;99.90;;;;;;5000699;28;19909;-94
2022/02/09 20:43:39;;;;;;;;;;;6.70;99.90;;;;;;4997193;28;19909;-91
2022/02/09 20:46:07;;;;;;;;;;;6.70;99.90;;;;;;4996881;28;19916;-94
2022/02/09 20:48:32;;;;;;;;;;;6.70;99.90;;;;;;4996326;28;19921;-93
2022/02/09 20:51:00;;;;;;;;;;;6.60;99.90;;;;;;5000752;28;19909;-91
2022/02/09 20:53:27;;;;;;;;;;;6.60;99.90;;;;;;5016209;28;19916;-94
2022/02/09 20:55:52;;;;;;;;;;;6.60;99.90;;;;;;5010168;28;19909;-92
2022/02/09 20:58:19;;;;;;;;;;;6.50;99.90;;;;;;5015480;28;20011;-93
2022/02/09 21:00:51;;;;;;;;;;;6.50;99.90;;;;;;5002644;28;19905;-93
2022/02/09 21:06:12;;;;;;;;;;;6.50;99.90;;;;;;5020569;28;19968;-93
2022/02/09 21:08:51;;;;;;;;;;;6.50;99.90;;;;;;5009071;28;19906;-92
2022/02/09 21:14:12;;;;;;;;;;;6.40;99.90;;;;;;5004095;28;19951;-92
2022/02/09 21:17:00;;;;;;;;;;;6.40;99.90;;;;;;4998807;28;19916;-92
2022/02/09 21:19:51;;;;;;;;;;;6.40;99.90;;;;;;4998226;28;19921;-92
2022/02/09 21:31:58;;;;;;;;;;;6.40;99.90;;;;;;5018283;28;19949;-92
2022/02/09 21:41:29;;;;;;;;;;;6.30;99.90;;;;;;4992183;28;19921;-90
2022/02/09 21:57:42;;;;;;;;;;;5.90;99.90;;;;;;5015900;28;19933;-91
2022/02/09 22:00:37;;;;;;;;;;;5.90;99.90;;;;;;4998857;28;19972;-91
2022/02/09 22:16:52;;;;;;;;;;;5.80;99.90;;;;;;5014286;28;19916;-91
2022/02/09 22:19:44;;;;;;;;;;;5.70;99.90;;;;;;5004045;28;19921;-92
2022/02/09 22:22:29;;;;;;;;;;;5.70;99.90;;;;;;5012504;28;19996;-92
2022/02/09 22:27:34;;;;;;;;;;;5.70;99.90;;;;;;5015727;28;19912;-91
2022/02/09 22:48:34;;;;;;;;;;;5.60;99.90;;;;;;5020227;28;19945;-91
2022/02/09 22:56:30;;;;;;;;;;;5.60;99.90;;;;;;5014110;28;19912;-90
2022/02/09 22:58:56;;;;;;;;;;;5.60;99.90;;;;;;5020020;28;19940;-90
2022/02/09 23:01:33;;;;;;;;;;;5.60;99.90;;;;;;5021065;28;19910;-91
2022/02/09 23:06:43;;;;;;;;;;;5.60;99.90;;;;;;5021331;28;19941;-91
